sensor_id;sensor_type;location;lat;lon;timestamp;temperature;humidity
14585;DHT22;7379;51.506;11.876;2023-01-30T00:00:36;1.80;70.20
14585;DHT22;7379;51.506;11.876;2023-01-30T00:03:04;1.80;70.20
14585;DHT22;7379;51.506;11.876;2023-01-30T00:05:31;1.80;70.20
14585;DHT22;7379;51.506;11.876;2023-01-30T00:07:58;1.80;70.30
14585;DHT22;7379;51.506;11.876;2023-01-30T00:10:25;1.80;70.30
14585;DHT22;7379;51.506;11.876;2023-01-30T00:12:52;1.80;70.30
14585;DHT22;7379;51.506;11.876;2023-01-30T00:15:18;1.80;70.30
14585;DHT22;7379;51.506;11.876;2023-01-30T00:17:45;1.80;70.30
14585;DHT22;7379;51.506;11.876;2023-01-30T00:20:13;1.80;70.30
14585;DHT22;7379;51.506;11.876;2023-01-30T00:22:40;1.80;70.40
14585;DHT22;7379;51.506;11.876;2023-01-30T00:25:07;1.80;70.30
14585;DHT22;7379;51.506;11.876;2023-01-30T00:27:34;1.80;70.40
14585;DHT22;7379;51.506;11.876;2023-01-30T00:30:01;1.80;70.40
14585;DHT22;7379;51.506;11.876;2023-01-30T00:32:30;1.80;70.40
14585;DHT22;7379;51.506;11.876;2023-01-30T00:34:57;1.80;70.40
14585;DHT22;7379;51.506;11.876;2023-01-30T00:37:25;1.80;70.40
14585;DHT22;7379;51.506;11.876;2023-01-30T00:39:52;1.80;70.40
14585;DHT22;7379;51.506;11.876;2023-01-30T00:42:19;1.80;70.40
14585;DHT22;7379;51.506;11.876;2023-01-30T00:45:03;1.80;70.50
14585;DHT22;7379;51.506;11.876;2023-01-30T00:47:48;1.80;70.60
14585;DHT22;7379;51.506;11.876;2023-01-30T00:50:15;1.80;70.60
14585;DHT22;7379;51.506;11.876;2023-01-30T00:52:43;1.80;70.60
14585;DHT22;7379;51.506;11.876;2023-01-30T00:55:10;1.80;70.60
14585;DHT22;7379;51.506;11.876;2023-01-30T00:57:37;1.80;70.60
14585;DHT22;7379;51.506;11.876;2023-01-30T01:00:05;1.80;70.70
14585;DHT22;7379;51.506;11.876;2023-01-30T01:02:33;1.80;70.70
14585;DHT22;7379;51.506;11.876;2023-01-30T01:05:00;1.80;70.70
14585;DHT22;7379;51.506;11.876;2023-01-30T01:07:27;1.80;70.70
14585;DHT22;7379;51.506;11.876;2023-01-30T01:09:55;1.80;70.70
14585;DHT22;7379;51.506;11.876;2023-01-30T01:12:22;1.80;70.70
14585;DHT22;7379;51.506;11.876;2023-01-30T01:14:49;1.80;70.70
14585;DHT22;7379;51.506;11.876;2023-01-30T01:17:15;1.80;70.70
14585;DHT22;7379;51.506;11.876;2023-01-30T01:19:42;1.80;70.80
14585;DHT22;7379;51.506;11.876;2023-01-30T01:22:09;1.80;70.80
14585;DHT22;7379;51.506;11.876;2023-01-30T01:24:36;1.80;70.80
14585;DHT22;7379;51.506;11.876;2023-01-30T01:27:04;1.80;70.80
14585;DHT22;7379;51.506;11.876;2023-01-30T01:29:31;1.80;70.90
14585;DHT22;7379;51.506;11.876;2023-01-30T01:31:57;1.80;70.90
14585;DHT22;7379;51.506;11.876;2023-01-30T01:34:24;1.80;70.90
14585;DHT22;7379;51.506;11.876;2023-01-30T01:36:51;1.80;70.90
14585;DHT22;7379;51.506;11.876;2023-01-30T01:39:18;1.80;71.00
14585;DHT22;7379;51.506;11.876;2023-01-30T01:41:45;1.80;71.00
14585;DHT22;7379;51.506;11.876;2023-01-30T01:44:13;1.80;70.90
14585;DHT22;7379;51.506;11.876;2023-01-30T01:46:43;1.80;71.00
14585;DHT22;7379;51.506;11.876;2023-01-30T01:49:14;1.80;71.00
14585;DHT22;7379;51.506;11.876;2023-01-30T01:51:47;1.80;71.00
14585;DHT22;7379;51.506;11.876;2023-01-30T01:54:18;1.80;71.10
14585;DHT22;7379;51.506;11.876;2023-01-30T01:56:49;1.80;71.10
14585;DHT22;7379;51.506;11.876;2023-01-30T01:59:22;1.90;71.20
14585;DHT22;7379;51.506;11.876;2023-01-30T02:01:53;1.80;71.10
14585;DHT22;7379;51.506;11.876;2023-01-30T02:04:22;1.80;71.20
14585;DHT22;7379;51.506;11.876;2023-01-30T02:07:05;1.90;71.30
14585;DHT22;7379;51.506;11.876;2023-01-30T02:09:32;1.90;71.30
14585;DHT22;7379;51.506;11.876;2023-01-30T02:12:00;1.80;71.20
14585;DHT22;7379;51.506;11.876;2023-01-30T02:14:30;1.90;72.10
14585;DHT22;7379;51.506;11.876;2023-01-30T02:16:58;1.80;71.30
14585;DHT22;7379;51.506;11.876;2023-01-30T02:19:33;1.90;71.40
14585;DHT22;7379;51.506;11.876;2023-01-30T02:25:17;1.80;71.40
14585;DHT22;7379;51.506;11.876;2023-01-30T02:28:01;1.90;71.50
14585;DHT22;7379;51.506;11.876;2023-01-30T02:31:03;1.90;71.50
14585;DHT22;7379;51.506;11.876;2023-01-30T02:33:38;1.80;71.50
14585;DHT22;7379;51.506;11.876;2023-01-30T02:36:14;1.90;71.70
14585;DHT22;7379;51.506;11.876;2023-01-30T02:38:50;1.90;71.70
14585;DHT22;7379;51.506;11.876;2023-01-30T02:41:23;1.90;71.70
14585;DHT22;7379;51.506;11.876;2023-01-30T02:43:58;1.90;71.70
14585;DHT22;7379;51.506;11.876;2023-01-30T02:46:34;1.90;71.80
14585;DHT22;7379;51.506;11.876;2023-01-30T02:49:06;1.90;71.80
14585;DHT22;7379;51.506;11.876;2023-01-30T02:51:35;1.90;71.80
14585;DHT22;7379;51.506;11.876;2023-01-30T02:54:04;1.90;71.70
14585;DHT22;7379;51.506;11.876;2023-01-30T02:56:43;1.90;71.80
14585;DHT22;7379;51.506;11.876;2023-01-30T02:59:11;1.90;71.80
14585;DHT22;7379;51.506;11.876;2023-01-30T03:02:03;1.90;71.80
14585;DHT22;7379;51.506;11.876;2023-01-30T03:04:53;1.90;71.80
14585;DHT22;7379;51.506;11.876;2023-01-30T03:07:32;1.90;71.80
14585;DHT22;7379;51.506;11.876;2023-01-30T03:10:06;1.90;71.80
14585;DHT22;7379;51.506;11.876;2023-01-30T03:12:42;1.90;71.80
14585;DHT22;7379;51.506;11.876;2023-01-30T03:15:15;1.90;71.90
14585;DHT22;7379;51.506;11.876;2023-01-30T03:17:45;1.90;71.90
14585;DHT22;7379;51.506;11.876;2023-01-30T03:20:13;1.90;71.90
14585;DHT22;7379;51.506;11.876;2023-01-30T03:22:41;1.90;71.90
14585;DHT22;7379;51.506;11.876;2023-01-30T03:25:08;1.90;71.90
14585;DHT22;7379;51.506;11.876;2023-01-30T03:27:37;1.90;72.00
14585;DHT22;7379;51.506;11.876;2023-01-30T03:30:05;1.90;72.00
14585;DHT22;7379;51.506;11.876;2023-01-30T03:32:32;1.90;71.90
14585;DHT22;7379;51.506;11.876;2023-01-30T03:35:00;2.00;72.10
14585;DHT22;7379;51.506;11.876;2023-01-30T03:37:27;2.00;72.10
14585;DHT22;7379;51.506;11.876;2023-01-30T03:39:54;2.00;72.10
14585;DHT22;7379;51.506;11.876;2023-01-30T03:42:21;2.00;72.10
14585;DHT22;7379;51.506;11.876;2023-01-30T03:44:47;2.00;72.10
14585;DHT22;7379;51.506;11.876;2023-01-30T03:47:14;2.00;72.20
14585;DHT22;7379;51.506;11.876;2023-01-30T03:49:41;2.00;72.20
14585;DHT22;7379;51.506;11.876;2023-01-30T03:52:09;2.00;72.30
14585;DHT22;7379;51.506;11.876;2023-01-30T03:54:36;2.00;72.90
14585;DHT22;7379;51.506;11.876;2023-01-30T03:57:03;2.00;72.20
14585;DHT22;7379;51.506;11.876;2023-01-30T03:59:30;2.00;72.30
14585;DHT22;7379;51.506;11.876;2023-01-30T04:01:56;2.00;72.30
14585;DHT22;7379;51.506;11.876;2023-01-30T04:04:23;2.00;72.30
14585;DHT22;7379;51.506;11.876;2023-01-30T04:06:50;2.00;72.30
14585;DHT22;7379;51.506;11.876;2023-01-30T04:09:18;2.00;72.40
14585;DHT22;7379;51.506;11.876;2023-01-30T04:11:45;2.00;72.50
14585;DHT22;7379;51.506;11.876;2023-01-30T04:14:12;2.00;72.50
14585;DHT22;7379;51.506;11.876;2023-01-30T04:16:39;2.00;72.60
14585;DHT22;7379;51.506;11.876;2023-01-30T04:19:06;2.10;72.80
14585;DHT22;7379;51.506;11.876;2023-01-30T04:21:33;2.10;72.80
14585;DHT22;7379;51.506;11.876;2023-01-30T04:23:59;2.00;72.70
14585;DHT22;7379;51.506;11.876;2023-01-30T04:26:28;2.10;72.90
14585;DHT22;7379;51.506;11.876;2023-01-30T04:28:55;2.10;72.90
14585;DHT22;7379;51.506;11.876;2023-01-30T04:31:21;2.00;73.70
14585;DHT22;7379;51.506;11.876;2023-01-30T04:33:48;2.10;73.00
14585;DHT22;7379;51.506;11.876;2023-01-30T04:36:15;2.10;73.00
14585;DHT22;7379;51.506;11.876;2023-01-30T04:38:42;2.00;73.00
14585;DHT22;7379;51.506;11.876;2023-01-30T04:41:08;2.00;73.00
14585;DHT22;7379;51.506;11.876;2023-01-30T04:43:37;2.00;73.10
14585;DHT22;7379;51.506;11.876;2023-01-30T04:46:04;2.10;73.20
14585;DHT22;7379;51.506;11.876;2023-01-30T04:48:30;2.10;73.30
14585;DHT22;7379;51.506;11.876;2023-01-30T04:50:57;2.10;73.40
14585;DHT22;7379;51.506;11.876;2023-01-30T04:53:24;2.00;73.30
14585;DHT22;7379;51.506;11.876;2023-01-30T04:55:51;2.10;73.40
14585;DHT22;7379;51.506;11.876;2023-01-30T04:58:18;2.10;73.40
14585;DHT22;7379;51.506;11.876;2023-01-30T05:00:46;2.10;73.40
14585;DHT22;7379;51.506;11.876;2023-01-30T05:03:14;2.10;73.50
14585;DHT22;7379;51.506;11.876;2023-01-30T05:05:40;2.10;73.60
14585;DHT22;7379;51.506;11.876;2023-01-30T05:08:08;2.10;73.60
14585;DHT22;7379;51.506;11.876;2023-01-30T05:10:34;2.10;73.70
14585;DHT22;7379;51.506;11.876;2023-01-30T05:13:02;2.10;73.70
14585;DHT22;7379;51.506;11.876;2023-01-30T05:15:28;2.10;73.80
14585;DHT22;7379;51.506;11.876;2023-01-30T05:17:57;2.10;73.80
14585;DHT22;7379;51.506;11.876;2023-01-30T05:20:24;2.10;73.80
14585;DHT22;7379;51.506;11.876;2023-01-30T05:22:51;2.10;74.00
14585;DHT22;7379;51.506;11.876;2023-01-30T05:25:18;2.10;74.10
14585;DHT22;7379;51.506;11.876;2023-01-30T05:27:44;2.10;74.20
14585;DHT22;7379;51.506;11.876;2023-01-30T05:30:11;2.10;74.20
14585;DHT22;7379;51.506;11.876;2023-01-30T05:32:38;2.20;74.40
14585;DHT22;7379;51.506;11.876;2023-01-30T05:35:07;2.10;74.30
14585;DHT22;7379;51.506;11.876;2023-01-30T05:37:34;2.10;74.40
14585;DHT22;7379;51.506;11.876;2023-01-30T05:40:02;2.10;74.50
14585;DHT22;7379;51.506;11.876;2023-01-30T05:42:30;2.20;74.60
14585;DHT22;7379;51.506;11.876;2023-01-30T05:44:57;2.20;74.60
14585;DHT22;7379;51.506;11.876;2023-01-30T05:47:24;2.10;74.60
14585;DHT22;7379;51.506;11.876;2023-01-30T05:49:51;2.20;74.70
14585;DHT22;7379;51.506;11.876;2023-01-30T05:52:19;2.20;74.70
14585;DHT22;7379;51.506;11.876;2023-01-30T05:54:45;2.20;74.70
14585;DHT22;7379;51.506;11.876;2023-01-30T05:57:12;2.20;74.80
14585;DHT22;7379;51.506;11.876;2023-01-30T05:59:39;2.20;74.80
14585;DHT22;7379;51.506;11.876;2023-01-30T06:02:06;2.20;74.80
14585;DHT22;7379;51.506;11.876;2023-01-30T06:04:32;2.20;74.80
14585;DHT22;7379;51.506;11.876;2023-01-30T06:07:00;2.20;74.80
14585;DHT22;7379;51.506;11.876;2023-01-30T06:09:28;2.20;74.90
14585;DHT22;7379;51.506;11.876;2023-01-30T06:11:55;2.20;74.90
14585;DHT22;7379;51.506;11.876;2023-01-30T06:14:21;2.20;75.00
14585;DHT22;7379;51.506;11.876;2023-01-30T06:16:48;2.20;75.10
14585;DHT22;7379;51.506;11.876;2023-01-30T06:19:15;2.20;75.20
14585;DHT22;7379;51.506;11.876;2023-01-30T06:21:42;2.20;75.30
14585;DHT22;7379;51.506;11.876;2023-01-30T06:24:09;2.20;75.50
14585;DHT22;7379;51.506;11.876;2023-01-30T06:26:37;2.20;75.60
14585;DHT22;7379;51.506;11.876;2023-01-30T06:29:04;2.20;75.80
14585;DHT22;7379;51.506;11.876;2023-01-30T06:31:30;2.20;75.80
14585;DHT22;7379;51.506;11.876;2023-01-30T06:33:57;2.20;75.90
14585;DHT22;7379;51.506;11.876;2023-01-30T06:36:24;2.20;76.00
14585;DHT22;7379;51.506;11.876;2023-01-30T06:38:51;2.20;76.00
14585;DHT22;7379;51.506;11.876;2023-01-30T06:41:18;2.30;76.10
14585;DHT22;7379;51.506;11.876;2023-01-30T06:43:46;2.30;76.10
14585;DHT22;7379;51.506;11.876;2023-01-30T06:46:13;2.30;76.10
14585;DHT22;7379;51.506;11.876;2023-01-30T06:48:39;2.30;76.10
14585;DHT22;7379;51.506;11.876;2023-01-30T06:51:06;2.30;76.20
14585;DHT22;7379;51.506;11.876;2023-01-30T06:53:33;2.30;76.30
14585;DHT22;7379;51.506;11.876;2023-01-30T06:56:00;2.30;76.40
14585;DHT22;7379;51.506;11.876;2023-01-30T06:58:27;2.30;76.50
14585;DHT22;7379;51.506;11.876;2023-01-30T07:00:56;2.30;76.60
14585;DHT22;7379;51.506;11.876;2023-01-30T07:03:22;2.30;76.60
14585;DHT22;7379;51.506;11.876;2023-01-30T07:05:49;2.30;76.70
14585;DHT22;7379;51.506;11.876;2023-01-30T07:08:16;2.30;76.80
14585;DHT22;7379;51.506;11.876;2023-01-30T07:10:43;2.30;76.70
14585;DHT22;7379;51.506;11.876;2023-01-30T07:13:11;2.30;76.70
14585;DHT22;7379;51.506;11.876;2023-01-30T07:15:38;2.30;76.70
14585;DHT22;7379;51.506;11.876;2023-01-30T07:18:06;2.40;77.20
14585;DHT22;7379;51.506;11.876;2023-01-30T07:20:33;2.40;77.10
14585;DHT22;7379;51.506;11.876;2023-01-30T07:23:00;2.40;77.10
14585;DHT22;7379;51.506;11.876;2023-01-30T07:25:28;2.30;77.10
14585;DHT22;7379;51.506;11.876;2023-01-30T07:27:56;2.40;77.10
14585;DHT22;7379;51.506;11.876;2023-01-30T07:30:24;2.40;77.10
14585;DHT22;7379;51.506;11.876;2023-01-30T07:32:51;2.40;77.10
14585;DHT22;7379;51.506;11.876;2023-01-30T07:35:20;2.40;77.20
14585;DHT22;7379;51.506;11.876;2023-01-30T07:37:48;2.40;77.20
14585;DHT22;7379;51.506;11.876;2023-01-30T07:40:15;2.40;77.30
14585;DHT22;7379;51.506;11.876;2023-01-30T07:42:43;2.40;77.70
14585;DHT22;7379;51.506;11.876;2023-01-30T07:45:10;2.40;77.70
14585;DHT22;7379;51.506;11.876;2023-01-30T07:47:37;2.40;77.70
14585;DHT22;7379;51.506;11.876;2023-01-30T07:50:05;2.40;77.80
14585;DHT22;7379;51.506;11.876;2023-01-30T07:52:33;2.40;77.70
14585;DHT22;7379;51.506;11.876;2023-01-30T07:55:00;2.40;77.70
14585;DHT22;7379;51.506;11.876;2023-01-30T07:57:27;2.40;77.70
14585;DHT22;7379;51.506;11.876;2023-01-30T07:59:55;2.40;78.50
14585;DHT22;7379;51.506;11.876;2023-01-30T08:02:21;2.50;78.00
14585;DHT22;7379;51.506;11.876;2023-01-30T08:04:48;2.50;78.00
14585;DHT22;7379;51.506;11.876;2023-01-30T08:07:15;2.50;78.00
14585;DHT22;7379;51.506;11.876;2023-01-30T08:09:43;2.50;78.10
14585;DHT22;7379;51.506;11.876;2023-01-30T08:12:10;2.50;78.00
14585;DHT22;7379;51.506;11.876;2023-01-30T08:14:37;2.50;78.00
14585;DHT22;7379;51.506;11.876;2023-01-30T08:17:03;2.50;78.00
14585;DHT22;7379;51.506;11.876;2023-01-30T08:19:30;2.50;78.00
14585;DHT22;7379;51.506;11.876;2023-01-30T08:21:58;2.50;77.90
14585;DHT22;7379;51.506;11.876;2023-01-30T08:24:24;2.60;78.00
14585;DHT22;7379;51.506;11.876;2023-01-30T08:26:53;2.60;78.10
14585;DHT22;7379;51.506;11.876;2023-01-30T08:29:19;2.60;78.30
14585;DHT22;7379;51.506;11.876;2023-01-30T08:31:46;2.50;78.20
14585;DHT22;7379;51.506;11.876;2023-01-30T08:34:13;2.50;78.20
14585;DHT22;7379;51.506;11.876;2023-01-30T08:36:40;2.60;78.30
14585;DHT22;7379;51.506;11.876;2023-01-30T08:39:06;2.60;78.30
14585;DHT22;7379;51.506;11.876;2023-01-30T08:41:33;2.60;78.30
14585;DHT22;7379;51.506;11.876;2023-01-30T08:44:01;2.60;78.20
14585;DHT22;7379;51.506;11.876;2023-01-30T08:46:28;2.60;78.30
14585;DHT22;7379;51.506;11.876;2023-01-30T08:48:55;2.60;78.40
14585;DHT22;7379;51.506;11.876;2023-01-30T08:51:22;2.60;78.40
14585;DHT22;7379;51.506;11.876;2023-01-30T08:53:48;2.60;78.30
14585;DHT22;7379;51.506;11.876;2023-01-30T08:56:15;2.70;78.40
14585;DHT22;7379;51.506;11.876;2023-01-30T08:58:42;2.70;79.30
14585;DHT22;7379;51.506;11.876;2023-01-30T09:01:12;2.60;78.60
14585;DHT22;7379;51.506;11.876;2023-01-30T09:03:39;2.60;78.70
14585;DHT22;7379;51.506;11.876;2023-01-30T09:06:06;2.60;78.70
14585;DHT22;7379;51.506;11.876;2023-01-30T09:08:32;2.60;78.80
14585;DHT22;7379;51.506;11.876;2023-01-30T09:11:00;2.60;78.90
14585;DHT22;7379;51.506;11.876;2023-01-30T09:13:28;2.70;79.00
14585;DHT22;7379;51.506;11.876;2023-01-30T09:15:55;2.70;79.10
14585;DHT22;7379;51.506;11.876;2023-01-30T09:18:24;2.70;79.10
14585;DHT22;7379;51.506;11.876;2023-01-30T09:20:51;2.70;79.00
14585;DHT22;7379;51.506;11.876;2023-01-30T09:23:18;2.70;79.10
14585;DHT22;7379;51.506;11.876;2023-01-30T09:25:45;2.70;79.00
14585;DHT22;7379;51.506;11.876;2023-01-30T09:28:12;2.70;79.10
14585;DHT22;7379;51.506;11.876;2023-01-30T09:30:38;2.70;79.10
14585;DHT22;7379;51.506;11.876;2023-01-30T09:33:05;2.70;79.30
14585;DHT22;7379;51.506;11.876;2023-01-30T09:35:47;2.70;79.70
14585;DHT22;7379;51.506;11.876;2023-01-30T09:38:14;2.80;79.50
14585;DHT22;7379;51.506;11.876;2023-01-30T09:40:49;2.80;79.50
14585;DHT22;7379;51.506;11.876;2023-01-30T09:43:35;2.80;79.30
14585;DHT22;7379;51.506;11.876;2023-01-30T09:46:20;2.80;79.40
14585;DHT22;7379;51.506;11.876;2023-01-30T09:48:58;2.80;79.20
14585;DHT22;7379;51.506;11.876;2023-01-30T09:51:39;2.80;79.20
14585;DHT22;7379;51.506;11.876;2023-01-30T09:54:15;2.80;79.20
14585;DHT22;7379;51.506;11.876;2023-01-30T09:56:44;2.80;79.20
14585;DHT22;7379;51.506;11.876;2023-01-30T09:59:18;2.80;79.20
14585;DHT22;7379;51.506;11.876;2023-01-30T10:01:52;2.80;79.20
14585;DHT22;7379;51.506;11.876;2023-01-30T10:04:26;2.80;79.30
14585;DHT22;7379;51.506;11.876;2023-01-30T10:07:01;2.80;79.20
14585;DHT22;7379;51.506;11.876;2023-01-30T10:09:40;2.80;79.00
14585;DHT22;7379;51.506;11.876;2023-01-30T10:12:20;2.90;79.10
14585;DHT22;7379;51.506;11.876;2023-01-30T10:15:13;2.90;79.10
14585;DHT22;7379;51.506;11.876;2023-01-30T10:17:57;2.90;79.30
14585;DHT22;7379;51.506;11.876;2023-01-30T10:20:39;2.90;79.30
14585;DHT22;7379;51.506;11.876;2023-01-30T10:23:24;2.90;79.30
14585;DHT22;7379;51.506;11.876;2023-01-30T10:25:57;2.90;79.40
14585;DHT22;7379;51.506;11.876;2023-01-30T10:28:29;2.90;79.70
14585;DHT22;7379;51.506;11.876;2023-01-30T10:31:03;2.90;79.90
14585;DHT22;7379;51.506;11.876;2023-01-30T10:33:33;3.00;80.00
14585;DHT22;7379;51.506;11.876;2023-01-30T10:36:03;3.00;80.00
14585;DHT22;7379;51.506;11.876;2023-01-30T10:38:38;3.00;80.00
14585;DHT22;7379;51.506;11.876;2023-01-30T10:41:12;3.00;80.00
14585;DHT22;7379;51.506;11.876;2023-01-30T10:43:44;3.00;80.10
14585;DHT22;7379;51.506;11.876;2023-01-30T10:46:22;3.00;80.10
14585;DHT22;7379;51.506;11.876;2023-01-30T10:48:57;3.00;80.20
14585;DHT22;7379;51.506;11.876;2023-01-30T10:51:37;3.00;80.20
14585;DHT22;7379;51.506;11.876;2023-01-30T10:54:13;3.00;80.30
14585;DHT22;7379;51.506;11.876;2023-01-30T10:56:48;3.00;80.30
14585;DHT22;7379;51.506;11.876;2023-01-30T10:59:23;3.10;80.50
14585;DHT22;7379;51.506;11.876;2023-01-30T11:01:57;3.10;80.50
14585;DHT22;7379;51.506;11.876;2023-01-30T11:04:29;3.10;80.60
14585;DHT22;7379;51.506;11.876;2023-01-30T11:06:57;3.10;80.50
14585;DHT22;7379;51.506;11.876;2023-01-30T11:09:38;3.20;80.70
14585;DHT22;7379;51.506;11.876;2023-01-30T11:12:05;3.10;80.80
14585;DHT22;7379;51.506;11.876;2023-01-30T11:14:51;3.20;81.00
14585;DHT22;7379;51.506;11.876;2023-01-30T11:17:18;3.20;81.70
14585;DHT22;7379;51.506;11.876;2023-01-30T11:19:53;3.20;80.90
14585;DHT22;7379;51.506;11.876;2023-01-30T11:22:23;3.20;80.90
14585;DHT22;7379;51.506;11.876;2023-01-30T11:25:00;3.20;81.20
14585;DHT22;7379;51.506;11.876;2023-01-30T11:27:30;3.30;81.10
14585;DHT22;7379;51.506;11.876;2023-01-30T11:30:04;3.30;81.10
14585;DHT22;7379;51.506;11.876;2023-01-30T11:32:31;3.30;81.20
14585;DHT22;7379;51.506;11.876;2023-01-30T11:35:10;3.30;81.30
14585;DHT22;7379;51.506;11.876;2023-01-30T11:37:43;3.30;81.60
14585;DHT22;7379;51.506;11.876;2023-01-30T11:40:22;3.30;81.80
14585;DHT22;7379;51.506;11.876;2023-01-30T11:42:51;3.40;82.10
14585;DHT22;7379;51.506;11.876;2023-01-30T11:45:19;3.40;82.10
14585;DHT22;7379;51.506;11.876;2023-01-30T11:47:49;3.40;82.20
14585;DHT22;7379;51.506;11.876;2023-01-30T11:50:18;3.40;82.00
14585;DHT22;7379;51.506;11.876;2023-01-30T11:52:46;3.40;81.80
14585;DHT22;7379;51.506;11.876;2023-01-30T11:55:17;3.40;81.60
14585;DHT22;7379;51.506;11.876;2023-01-30T11:57:48;3.40;81.60
14585;DHT22;7379;51.506;11.876;2023-01-30T12:00:20;3.50;81.80
14585;DHT22;7379;51.506;11.876;2023-01-30T12:02:48;3.50;81.80
14585;DHT22;7379;51.506;11.876;2023-01-30T12:05:23;3.50;81.70
14585;DHT22;7379;51.506;11.876;2023-01-30T12:07:51;3.50;81.50
14585;DHT22;7379;51.506;11.876;2023-01-30T12:10:28;3.50;81.60
14585;DHT22;7379;51.506;11.876;2023-01-30T12:12:57;3.50;81.80
14585;DHT22;7379;51.506;11.876;2023-01-30T12:15:27;3.50;81.70
14585;DHT22;7379;51.506;11.876;2023-01-30T12:18:02;3.60;81.80
14585;DHT22;7379;51.506;11.876;2023-01-30T12:20:41;3.60;81.90
14585;DHT22;7379;51.506;11.876;2023-01-30T12:23:13;3.70;81.90
14585;DHT22;7379;51.506;11.876;2023-01-30T12:25:46;3.70;81.80
14585;DHT22;7379;51.506;11.876;2023-01-30T12:28:21;3.70;81.70
14585;DHT22;7379;51.506;11.876;2023-01-30T12:30:54;3.70;81.80
14585;DHT22;7379;51.506;11.876;2023-01-30T12:33:25;3.80;82.10
14585;DHT22;7379;51.506;11.876;2023-01-30T12:36:03;3.80;81.90
14585;DHT22;7379;51.506;11.876;2023-01-30T12:38:52;3.80;81.90
14585;DHT22;7379;51.506;11.876;2023-01-30T12:41:30;3.80;81.80
14585;DHT22;7379;51.506;11.876;2023-01-30T12:44:18;3.80;81.80
14585;DHT22;7379;51.506;11.876;2023-01-30T12:46:58;3.80;81.80
14585;DHT22;7379;51.506;11.876;2023-01-30T12:49:46;3.90;81.90
14585;DHT22;7379;51.506;11.876;2023-01-30T12:52:38;3.90;81.80
14585;DHT22;7379;51.506;11.876;2023-01-30T12:55:21;4.00;81.40
14585;DHT22;7379;51.506;11.876;2023-01-30T12:57:57;4.00;81.40
14585;DHT22;7379;51.506;11.876;2023-01-30T13:00:36;4.10;81.20
14585;DHT22;7379;51.506;11.876;2023-01-30T13:03:22;4.20;80.70
14585;DHT22;7379;51.506;11.876;2023-01-30T13:06:03;4.20;80.40
14585;DHT22;7379;51.506;11.876;2023-01-30T13:08:41;4.20;80.10
14585;DHT22;7379;51.506;11.876;2023-01-30T13:11:28;4.30;79.90
14585;DHT22;7379;51.506;11.876;2023-01-30T13:14:08;4.30;79.50
14585;DHT22;7379;51.506;11.876;2023-01-30T13:16:47;4.30;79.20
14585;DHT22;7379;51.506;11.876;2023-01-30T13:19:21;4.30;78.90
14585;DHT22;7379;51.506;11.876;2023-01-30T13:21:57;4.30;78.80
14585;DHT22;7379;51.506;11.876;2023-01-30T13:24:35;4.20;78.70
14585;DHT22;7379;51.506;11.876;2023-01-30T13:27:09;4.20;78.90
14585;DHT22;7379;51.506;11.876;2023-01-30T13:29:41;4.20;79.10
14585;DHT22;7379;51.506;11.876;2023-01-30T13:32:14;4.20;79.30
14585;DHT22;7379;51.506;11.876;2023-01-30T13:34:43;4.20;79.50
14585;DHT22;7379;51.506;11.876;2023-01-30T13:37:15;4.20;79.50
14585;DHT22;7379;51.506;11.876;2023-01-30T13:39:45;4.20;80.20
14585;DHT22;7379;51.506;11.876;2023-01-30T13:42:24;4.20;79.40
14585;DHT22;7379;51.506;11.876;2023-01-30T13:44:54;4.30;79.70
14585;DHT22;7379;51.506;11.876;2023-01-30T13:47:30;4.20;79.70
14585;DHT22;7379;51.506;11.876;2023-01-30T13:50:11;4.20;79.90
14585;DHT22;7379;51.506;11.876;2023-01-30T13:52:45;4.30;80.00
14585;DHT22;7379;51.506;11.876;2023-01-30T13:55:21;4.20;79.90
14585;DHT22;7379;51.506;11.876;2023-01-30T13:57:53;4.30;80.00
14585;DHT22;7379;51.506;11.876;2023-01-30T14:00:28;4.30;79.80
14585;DHT22;7379;51.506;11.876;2023-01-30T14:03:30;4.30;79.80
14585;DHT22;7379;51.506;11.876;2023-01-30T14:08:56;4.30;79.80
14585;DHT22;7379;51.506;11.876;2023-01-30T14:11:27;4.30;80.00
14585;DHT22;7379;51.506;11.876;2023-01-30T14:13:59;4.30;80.20
14585;DHT22;7379;51.506;11.876;2023-01-30T14:16:41;4.30;81.10
14585;DHT22;7379;51.506;11.876;2023-01-30T14:19:20;4.30;80.50
14585;DHT22;7379;51.506;11.876;2023-01-30T14:21:54;4.20;80.40
14585;DHT22;7379;51.506;11.876;2023-01-30T14:24:22;4.20;80.40
14585;DHT22;7379;51.506;11.876;2023-01-30T14:27:18;4.20;80.50
14585;DHT22;7379;51.506;11.876;2023-01-30T14:29:55;4.20;80.50
14585;DHT22;7379;51.506;11.876;2023-01-30T14:32:53;4.20;80.70
14585;DHT22;7379;51.506;11.876;2023-01-30T14:35:23;4.20;80.80
14585;DHT22;7379;51.506;11.876;2023-01-30T14:38:07;4.20;80.90
14585;DHT22;7379;51.506;11.876;2023-01-30T14:40:43;4.20;81.10
14585;DHT22;7379;51.506;11.876;2023-01-30T14:43:50;4.20;81.30
14585;DHT22;7379;51.506;11.876;2023-01-30T14:46:42;4.20;81.50
14585;DHT22;7379;51.506;11.876;2023-01-30T14:49:27;4.20;81.50
14585;DHT22;7379;51.506;11.876;2023-01-30T14:51:55;4.20;81.50
14585;DHT22;7379;51.506;11.876;2023-01-30T14:54:35;4.20;81.50
14585;DHT22;7379;51.506;11.876;2023-01-30T14:57:16;4.20;81.50
14585;DHT22;7379;51.506;11.876;2023-01-30T14:59:48;4.20;81.50
14585;DHT22;7379;51.506;11.876;2023-01-30T15:02:20;4.20;81.50
14585;DHT22;7379;51.506;11.876;2023-01-30T15:05:00;4.20;81.50
14585;DHT22;7379;51.506;11.876;2023-01-30T15:07:31;4.20;81.50
14585;DHT22;7379;51.506;11.876;2023-01-30T15:10:04;4.20;81.40
14585;DHT22;7379;51.506;11.876;2023-01-30T15:15:31;4.20;81.30
14585;DHT22;7379;51.506;11.876;2023-01-30T15:18:16;4.20;81.20
14585;DHT22;7379;51.506;11.876;2023-01-30T15:21:02;4.20;81.20
14585;DHT22;7379;51.506;11.876;2023-01-30T15:23:50;4.20;81.00
14585;DHT22;7379;51.506;11.876;2023-01-30T15:26:27;4.20;81.10
14585;DHT22;7379;51.506;11.876;2023-01-30T15:29:08;4.20;81.00
14585;DHT22;7379;51.506;11.876;2023-01-30T15:31:52;4.20;81.00
14585;DHT22;7379;51.506;11.876;2023-01-30T15:34:19;4.20;80.90
14585;DHT22;7379;51.506;11.876;2023-01-30T15:36:48;4.20;80.80
14585;DHT22;7379;51.506;11.876;2023-01-30T15:39:19;4.20;80.80
14585;DHT22;7379;51.506;11.876;2023-01-30T15:41:47;4.20;80.80
14585;DHT22;7379;51.506;11.876;2023-01-30T15:44:49;4.20;80.70
14585;DHT22;7379;51.506;11.876;2023-01-30T15:50:21;4.20;80.50
14585;DHT22;7379;51.506;11.876;2023-01-30T15:52:50;4.20;80.50
14585;DHT22;7379;51.506;11.876;2023-01-30T15:55:24;4.20;80.50
14585;DHT22;7379;51.506;11.876;2023-01-30T15:57:54;4.20;80.40
14585;DHT22;7379;51.506;11.876;2023-01-30T16:00:26;4.20;80.40
14585;DHT22;7379;51.506;11.876;2023-01-30T16:02:53;4.20;80.30
14585;DHT22;7379;51.506;11.876;2023-01-30T16:05:22;4.20;80.20
14585;DHT22;7379;51.506;11.876;2023-01-30T16:07:52;4.20;80.00
14585;DHT22;7379;51.506;11.876;2023-01-30T16:10:20;4.20;79.80
14585;DHT22;7379;51.506;11.876;2023-01-30T16:12:49;4.20;79.60
14585;DHT22;7379;51.506;11.876;2023-01-30T16:15:24;4.20;79.50
14585;DHT22;7379;51.506;11.876;2023-01-30T16:17:59;4.20;79.30
14585;DHT22;7379;51.506;11.876;2023-01-30T16:20:26;4.20;79.20
14585;DHT22;7379;51.506;11.876;2023-01-30T16:22:55;4.20;79.00